Time;durP1;ratioP1;P1;durP2;ratioP2;P2;SDS_P1;SDS_P2;PMS_P1;PMS_P2;Temp;Humidity;BMP_temperature;BMP_pressure;BME280_temperature;BME280_humidity;BME280_pressure;Samples;Min_cycle;Max_cycle;Signal;HPM_P1;HPM_P2
2021/08/29 00:01:07;;;;;;;;;;;13.40;99.90;;;;;;5068453;28;20028;-69
2021/08/29 00:03:33;;;;;;;2.97;1.10;;;13.40;99.90;;;;;;5068239;28;20394;-69
2021/08/29 00:05:59;;;;;;;;;;;13.40;99.90;;;;;;5068518;28;20032;-69
2021/08/29 00:08:24;;;;;;;4.13;1.00;;;13.40;99.90;;;;;;5068055;28;19908;-69
2021/08/29 00:10:50;;;;;;;;;;;13.40;99.90;;;;;;5068483;28;20570;-69
2021/08/29 00:13:16;;;;;;;2.08;1.00;;;13.40;99.90;;;;;;5068058;28;19908;-68
2021/08/29 00:15:41;;;;;;;;;;;13.40;99.90;;;;;;5069722;28;20028;-69
2021/08/29 00:18:07;;;;;;;2.63;0.98;;;13.40;99.90;;;;;;5071887;28;19918;-69
2021/08/29 00:20:32;;;;;;;;;;;13.40;99.90;;;;;;5072418;28;20389;-69
2021/08/29 00:22:58;;;;;;;2.75;1.20;;;13.40;99.90;;;;;;5071579;28;19921;-69
2021/08/29 00:25:24;;;;;;;;;;;13.40;99.90;;;;;;5072244;28;20041;-69
2021/08/29 00:27:49;;;;;;;3.47;0.95;;;13.40;99.90;;;;;;5071677;28;20371;-69
2021/08/29 00:30:15;;;;;;;;;;;13.40;99.90;;;;;;5054257;28;20021;-70
2021/08/29 00:32:41;;;;;;;6.22;0.95;;;13.40;99.90;;;;;;5071771;28;19939;-69
2021/08/29 00:35:07;;;;;;;1.77;0.90;;;13.40;99.90;;;;;;5071487;28;20503;-68
2021/08/29 00:37:32;;;;;;;;;;;13.50;99.90;;;;;;5072070;28;20055;-68
2021/08/29 00:40:00;;;;;;;1.60;0.90;;;13.40;99.90;;;;;;5071590;28;19908;-69
2021/08/29 00:42:25;;;;;;;2.08;1.00;;;13.50;99.90;;;;;;5071448;28;20035;-70
2021/08/29 00:44:51;;;;;;;;;;;13.60;99.90;;;;;;5071830;28;20025;-69
2021/08/29 00:47:16;;;;;;;1.83;1.00;;;13.60;99.90;;;;;;5071407;28;19912;-69
2021/08/29 00:49:42;;;;;;;;;;;13.50;99.90;;;;;;5071816;28;20036;-69
2021/08/29 00:52:08;;;;;;;2.63;1.17;;;13.50;99.90;;;;;;5071201;28;19962;-69
2021/08/29 00:54:36;;;;;;;1.75;0.75;;;13.50;99.90;;;;;;5053618;28;20028;-68
2021/08/29 00:57:11;;;;;;;1.33;0.90;;;13.50;99.90;;;;;;5071197;28;20021;-69
2021/08/29 00:59:38;;;;;;;2.10;1.17;;;13.50;99.90;;;;;;5071039;28;20040;-69
2021/08/29 01:02:27;;;;;;;3.20;0.95;;;13.50;99.90;;;;;;5070924;28;20039;-70
2021/08/29 01:05:44;;;;;;;1.73;0.90;;;13.60;99.90;;;;;;5057953;28;20117;-70
2021/08/29 01:08:15;;;;;;;4.70;1.40;;;13.50;99.90;;;;;;4969676;28;20041;-69
2021/08/29 01:10:55;;;;;;;2.97;1.02;;;13.60;99.90;;;;;;4969617;28;20034;-69
2021/08/29 01:13:45;;;;;;;4.40;0.93;;;13.60;99.90;;;;;;5027953;28;20071;-70
2021/08/29 01:16:15;;;;;;;3.88;1.15;;;13.70;99.90;;;;;;5070660;28;20763;-70
2021/08/29 01:18:43;;;;;;;2.50;0.77;;;13.70;99.90;;;;;;5053141;28;20020;-69
2021/08/29 01:21:16;;;;;;;3.70;0.70;;;13.70;99.90;;;;;;5070541;28;20071;-69
2021/08/29 01:23:49;;;;;;;7.35;0.95;;;13.70;99.90;;;;;;5070791;28;20052;-70
2021/08/29 01:26:25;;;;;;;4.93;0.80;;;13.70;99.90;;;;;;5070237;28;20045;-70
2021/08/29 01:28:57;;;;;;;1.40;0.70;;;13.60;99.90;;;;;;5069922;28;20085;-70
2021/08/29 01:31:29;;;;;;;4.35;1.05;;;13.70;99.90;;;;;;5070632;28;20048;-70
2021/08/29 01:34:01;;;;;;;1.60;1.00;;;13.70;99.90;;;;;;5070731;28;20029;-70
2021/08/29 01:36:27;;;;;;;6.32;0.98;;;13.70;99.90;;;;;;5070854;28;20840;-69
2021/08/29 01:38:54;;;;;;;1.73;1.00;;;13.70;99.90;;;;;;5070430;28;20056;-70
2021/08/29 01:41:20;;;;;;;2.33;0.98;;;13.70;99.90;;;;;;5070443;28;20044;-69
2021/08/29 01:43:47;;;;;;;6.38;1.10;;;13.70;99.90;;;;;;5070557;28;20023;-69
2021/08/29 01:46:13;;;;;;;3.30;1.00;;;13.80;99.90;;;;;;5052259;28;20037;-70
2021/08/29 01:48:41;;;;;;;2.70;1.35;;;13.80;99.90;;;;;;5070328;28;20107;-70
2021/08/29 01:51:08;;;;;;;5.90;1.55;;;13.80;99.90;;;;;;5070090;28;20020;-70
2021/08/29 01:53:39;;;;;;;3.50;1.17;;;13.80;99.90;;;;;;5070188;28;20039;-70
2021/08/29 01:56:06;;;;;;;6.35;1.20;;;13.80;99.90;;;;;;5070168;28;20073;-69
2021/08/29 01:58:32;;;;;;;5.80;1.10;;;13.80;99.90;;;;;;5070097;28;20028;-69
2021/08/29 02:01:00;;;;;;;2.58;1.30;;;13.80;99.90;;;;;;5069999;28;20060;-69
2021/08/29 02:03:26;;;;;;;1.98;1.10;;;13.80;99.90;;;;;;5069912;28;20056;-69
2021/08/29 02:06:06;;;;;;;2.08;0.98;;;13.80;99.90;;;;;;5070022;28;20033;-69
2021/08/29 02:08:35;;;;;;;1.17;0.80;;;13.70;99.90;;;;;;5069979;28;20029;-69
2021/08/29 02:11:01;;;;;;;1.85;1.00;;;13.70;99.90;;;;;;5069850;28;20039;-69
2021/08/29 02:13:28;;;;;;;;;;;13.60;99.90;;;;;;5070263;28;20036;-69
2021/08/29 02:15:59;;;;;;;2.78;1.00;;;13.60;99.90;;;;;;5051790;28;19908;-69
2021/08/29 02:18:27;;;;;;;3.15;1.05;;;13.60;99.90;;;;;;5069626;28;20029;-70
2021/08/29 02:20:53;;;;;;;1.98;0.90;;;13.70;99.90;;;;;;5069473;28;20139;-70
2021/08/29 02:23:23;;;;;;;2.08;1.17;;;13.70;99.90;;;;;;5069620;28;20055;-69
2021/08/29 02:25:49;;;;;;;1.85;1.05;;;13.70;99.90;;;;;;5069347;28;20028;-69
2021/08/29 02:28:16;;;;;;;6.38;1.25;;;13.70;99.90;;;;;;5069314;28;20016;-69
2021/08/29 02:30:42;;;;;;;1.95;0.95;;;13.70;99.90;;;;;;5069648;28;20067;-70
2021/08/29 02:33:09;;;;;;;;;;;13.70;99.90;;;;;;5052144;28;20044;-69
2021/08/29 02:35:35;;;;;;;1.73;1.00;;;13.70;99.90;;;;;;5069350;28;19915;-69
2021/08/29 02:38:02;;;;;;;2.22;1.08;;;13.70;99.90;;;;;;5069000;28;20025;-69
2021/08/29 02:40:39;;;;;;;1.42;0.90;;;13.80;99.90;;;;;;5069269;28;20056;-69
2021/08/29 02:43:07;;;;;;;1.85;0.80;;;13.80;99.90;;;;;;5069120;28;20020;-68
2021/08/29 02:45:35;;;;;;;1.35;0.70;;;13.80;99.90;;;;;;5069088;28;20077;-69
2021/08/29 02:48:02;;;;;;;1.38;0.80;;;13.80;99.90;;;;;;5069115;28;20497;-70
2021/08/29 02:50:28;;;;;;;3.40;0.90;;;13.80;99.90;;;;;;5069418;28;20050;-69
2021/08/29 02:52:55;;;;;;;3.72;0.90;;;13.90;99.90;;;;;;5068999;28;20044;-70
2021/08/29 02:55:20;;;;;;;1.13;0.70;;;13.80;99.90;;;;;;5069058;28;20024;-68
2021/08/29 02:57:47;;;;;;;;;;;13.90;99.90;;;;;;5069290;28;20093;-69
2021/08/29 03:00:14;;;;;;;3.13;0.65;;;13.80;99.90;;;;;;5068895;28;20016;-69
2021/08/29 03:02:41;;;;;;;4.45;1.02;;;13.80;99.90;;;;;;5068958;28;20048;-69
2021/08/29 03:05:08;;;;;;;6.15;0.85;;;13.80;99.90;;;;;;5068618;28;20048;-69
2021/08/29 03:07:34;;;;;;;2.80;1.60;;;13.80;99.90;;;;;;5068674;28;20031;-69
2021/08/29 03:10:00;;;;;;;;;;;13.60;99.90;;;;;;5069232;28;20017;-69
2021/08/29 03:12:26;;;;;;;3.08;1.38;;;13.50;99.90;;;;;;5068697;28;19953;-69
2021/08/29 03:14:51;;;;;;;;;;;13.40;99.90;;;;;;5069078;28;20032;-69
2021/08/29 03:17:18;;;;;;;2.60;1.50;;;13.30;99.90;;;;;;5050617;28;20407;-69
2021/08/29 03:19:44;;;;;;;3.08;1.58;;;13.20;99.90;;;;;;5068744;28;20542;-70
2021/08/29 03:22:11;;;;;;;10.57;2.58;;;13.10;99.90;;;;;;5050532;28;20540;-69
2021/08/29 03:24:37;;;;;;;1.92;1.30;;;13.00;99.90;;;;;;5068578;28;20033;-69
2021/08/29 03:27:02;;;;;;;;;;;13.00;99.90;;;;;;5068651;28;20508;-70
2021/08/29 03:29:28;;;;;;;7.32;1.88;;;12.90;99.90;;;;;;5068354;28;19912;-69
2021/08/29 03:31:53;;;;;;;;;;;12.90;99.90;;;;;;5069083;28;20032;-69
2021/08/29 03:34:22;;;;;;;3.95;1.23;;;12.80;99.90;;;;;;5068484;28;19912;-69
2021/08/29 03:36:47;;;;;;;3.58;1.60;;;12.70;99.90;;;;;;5068191;28;20045;-69
2021/08/29 03:39:13;;;;;;;;;;;12.80;99.90;;;;;;5068672;28;20032;-69
2021/08/29 03:41:40;;;;;;;4.68;2.33;;;12.70;99.90;;;;;;5068493;28;19916;-69
2021/08/29 03:44:09;;;;;;;2.17;1.17;;;12.70;99.90;;;;;;5068442;28;20025;-68
2021/08/29 03:46:36;;;;;;;4.57;1.75;;;12.60;99.90;;;;;;5068422;28;20032;-69
2021/08/29 03:49:02;;;;;;;3.25;1.50;;;12.60;99.90;;;;;;5068106;28;20021;-69
2021/08/29 03:51:28;;;;;;;2.45;1.10;;;12.60;99.90;;;;;;5067645;28;20029;-69
2021/08/29 03:53:54;;;;;;;2.28;1.52;;;12.50;99.90;;;;;;5050519;28;20109;-69
2021/08/29 03:56:20;;;;;;;;;;;12.50;99.90;;;;;;5068664;28;20158;-69
2021/08/29 03:58:45;;;;;;;1.83;1.30;;;12.50;99.90;;;;;;5050211;28;19912;-69
2021/08/29 04:01:11;;;;;;;1.88;1.38;;;12.40;99.90;;;;;;5068071;28;20039;-69
2021/08/29 04:03:37;;;;;;;;;;;12.40;99.90;;;;;;5068719;28;20708;-69
2021/08/29 04:06:04;;;;;;;11.60;1.90;;;12.40;99.90;;;;;;5068028;28;20003;-69
2021/08/29 04:08:45;;;;;;;4.47;1.60;;;12.40;99.90;;;;;;5050001;28;20020;-69
2021/08/29 04:11:12;;;;;;;5.00;1.70;;;12.30;99.90;;;;;;5049951;28;20037;-69
2021/08/29 04:13:39;;;;;;;6.55;1.50;;;12.40;99.90;;;;;;5068114;28;20112;-69
2021/08/29 04:16:05;;;;;;;3.50;2.30;;;12.30;99.90;;;;;;5067977;28;20052;-69
2021/08/29 04:18:42;;;;;;;2.22;1.90;;;12.30;99.90;;;;;;5067949;28;20027;-69
2021/08/29 04:21:08;;;;;;;6.57;1.90;;;12.30;99.90;;;;;;5067876;28;20182;-69
2021/08/29 04:23:35;;;;;;;6.63;2.00;;;12.30;99.90;;;;;;5049931;28;20681;-70
2021/08/29 04:26:00;;;;;;;7.40;1.95;;;12.30;99.90;;;;;;5067993;28;20128;-69
2021/08/29 04:28:26;;;;;;;;;;;12.20;99.90;;;;;;5068252;28;20139;-70
2021/08/29 04:30:54;;;;;;;2.90;2.33;;;12.20;99.90;;;;;;5049852;28;19908;-70
2021/08/29 04:33:20;;;;;;;4.25;2.72;;;12.10;99.90;;;;;;5067826;28;20131;-69
2021/08/29 04:35:46;;;;;;;;;;;12.10;99.90;;;;;;5068208;28;20256;-69
2021/08/29 04:38:11;;;;;;;4.55;2.10;;;12.10;99.90;;;;;;5067598;28;19927;-69
2021/08/29 04:40:37;;;;;;;;;;;12.10;99.90;;;;;;5066891;28;20032;-70
2021/08/29 04:43:02;;;;;;;5.78;2.17;;;12.10;99.90;;;;;;5049551;28;19908;-70
2021/08/29 04:45:28;;;;;;;;;;;12.10;99.90;;;;;;5068122;28;20075;-69
2021/08/29 04:47:54;;;;;;;5.43;2.83;;;12.10;99.90;;;;;;5067794;28;19969;-68
2021/08/29 04:50:19;;;;;;;;;;;12.10;99.90;;;;;;5068018;28;20029;-69
2021/08/29 04:52:45;;;;;;;5.65;2.95;;;12.20;99.90;;;;;;5067544;28;19904;-69
2021/08/29 04:55:10;;;;;;;;;;;12.20;99.90;;;;;;5067771;28;20469;-69
2021/08/29 04:57:36;;;;;;;2.88;2.17;;;12.40;99.90;;;;;;5067415;28;19915;-68
2021/08/29 05:00:02;;;;;;;;;;;12.50;99.90;;;;;;5067931;28;20029;-69
2021/08/29 05:02:28;;;;;;;5.60;2.70;;;12.80;99.90;;;;;;5069983;28;20530;-69
2021/08/29 05:04:54;;;;;;;;;;;13.00;99.90;;;;;;5070060;28;20032;-69
2021/08/29 05:07:19;;;;;;;11.48;2.33;;;13.30;99.90;;;;;;5071003;28;19918;-69
2021/08/29 05:09:45;;;;;;;;;;;13.70;99.90;;;;;;5071337;28;20037;-69
2021/08/29 05:12:10;;;;;;;4.20;1.60;;;14.40;99.90;;;;;;5070908;28;19909;-70
2021/08/29 05:14:36;;;;;;;;;;;15.10;99.90;;;;;;5071421;28;20021;-68
2021/08/29 05:17:01;;;;;;;4.78;1.33;;;15.50;99.90;;;;;;5070541;28;19978;-69
2021/08/29 05:19:27;;;;;;;;;;;15.70;99.90;;;;;;5071086;28;20565;-69
2021/08/29 05:21:53;;;;;;;2.50;1.83;;;16.00;99.90;;;;;;5070492;28;19920;-70
2021/08/29 05:24:18;;;;;;;6.30;1.92;;;16.30;99.90;;;;;;5070780;28;20021;-70
2021/08/29 05:26:44;;;;;;;3.22;1.67;;;16.60;99.90;;;;;;5070767;28;20037;-70
2021/08/29 05:29:09;;;;;;;6.80;2.25;;;17.00;99.20;;;;;;5052354;28;20397;-69
2021/08/29 05:31:35;;;;;;;2.78;1.77;;;17.50;97.50;;;;;;5070644;28;20523;-67
2021/08/29 05:34:01;;;;;;;2.72;2.13;;;18.10;96.90;;;;;;5070661;28;20025;-67
2021/08/29 05:36:26;;;;;;;7.25;3.13;;;18.60;95.30;;;;;;5070586;28;20541;-68
2021/08/29 05:38:52;;;;;;;3.20;1.95;;;19.00;94.00;;;;;;5069207;28;20032;-67
2021/08/29 05:41:17;;;;;;;3.80;2.00;;;19.20;93.10;;;;;;5070330;28;20106;-68
2021/08/29 05:43:45;;;;;;;4.32;1.95;;;19.40;92.50;;;;;;5070285;28;20055;-68
2021/08/29 05:46:10;;;;;;;2.20;1.83;;;19.60;91.70;;;;;;5052303;28;20516;-69
2021/08/29 05:48:36;;;;;;;3.55;2.03;;;19.90;90.90;;;;;;5070288;28;20029;-68
2021/08/29 05:51:02;;;;;;;5.53;2.28;;;20.10;90.20;;;;;;5070065;28;20021;-68
2021/08/29 05:53:27;;;;;;;5.32;2.05;;;20.30;88.20;;;;;;5070270;28;20484;-68
2021/08/29 05:55:53;;;;;;;5.82;1.67;;;20.50;87.70;;;;;;5070214;28;20021;-68
2021/08/29 05:58:18;;;;;;;1.70;1.30;;;21.10;83.40;;;;;;5070077;28;20060;-68
2021/08/29 06:00:44;;;;;;;3.45;1.88;;;21.00;83.10;;;;;;5070091;28;20063;-68
2021/08/29 06:03:10;;;;;;;3.78;1.50;;;21.10;82.50;;;;;;5069768;28;20077;-67
2021/08/29 06:05:35;;;;;;;2.38;1.23;;;21.30;80.90;;;;;;5051694;28;20037;-68
2021/08/29 06:08:01;;;;;;;2.55;1.27;;;21.40;79.10;;;;;;5069825;28;20481;-68
2021/08/29 06:10:28;;;;;;;1.90;1.33;;;21.70;77.90;;;;;;5069929;28;20028;-68
2021/08/29 06:12:54;;;;;;;2.53;1.55;;;22.10;76.30;;;;;;5051262;28;20028;-68
2021/08/29 06:15:20;;;;;;;2.45;1.52;;;22.50;74.00;;;;;;5069630;28;20112;-68
2021/08/29 06:17:45;;;;;;;3.05;1.27;;;22.60;71.30;;;;;;5069202;28;20043;-69
2021/08/29 06:20:11;;;;;;;2.42;1.30;;;22.50;71.10;;;;;;5068774;28;20035;-68
2021/08/29 06:22:37;;;;;;;1.95;1.23;;;23.00;71.60;;;;;;5068746;28;20055;-68
2021/08/29 06:25:03;;;;;;;4.22;1.45;;;23.30;68.20;;;;;;5068476;28;20028;-69
2021/08/29 06:27:29;;;;;;;2.35;1.05;;;23.80;67.00;;;;;;5068657;28;20435;-68
2021/08/29 06:29:54;;;;;;;1.20;0.80;;;24.50;64.00;;;;;;5068616;28;20535;-68
2021/08/29 06:32:20;;;;;;;2.60;0.95;;;24.60;62.00;;;;;;5069226;28;20052;-68
2021/08/29 06:34:47;;;;;;;1.13;0.70;;;25.00;61.50;;;;;;5069537;28;20045;-69
2021/08/29 06:37:12;;;;;;;1.48;0.90;;;25.20;58.40;;;;;;5069239;28;20086;-69
2021/08/29 06:39:38;;;;;;;1.98;0.75;;;25.40;56.80;;;;;;5069239;28;20466;-68
2021/08/29 06:42:04;;;;;;;1.30;0.80;;;25.60;57.40;;;;;;5051315;28;20119;-68
2021/08/29 06:44:29;;;;;;;1.92;0.70;;;25.80;57.40;;;;;;5069388;28;20060;-68
2021/08/29 06:46:55;;;;;;;3.45;0.98;;;26.20;56.70;;;;;;5069139;28;20037;-68
2021/08/29 06:49:20;;;;;;;3.15;0.98;;;26.40;53.40;;;;;;5069292;28;20465;-69
2021/08/29 06:51:46;;;;;;;1.35;0.75;;;26.30;54.20;;;;;;5069097;28;20079;-69
2021/08/29 06:54:13;;;;;;;2.22;1.10;;;26.60;54.10;;;;;;5069068;28;20027;-69
2021/08/29 06:56:39;;;;;;;2.17;1.20;;;26.70;54.20;;;;;;5069024;28;20024;-68
2021/08/29 06:59:05;;;;;;;1.65;0.77;;;27.10;53.10;;;;;;5068818;28;20020;-68
2021/08/29 07:01:31;;;;;;;1.30;0.65;;;27.30;51.10;;;;;;5068861;28;20058;-68
2021/08/29 07:03:56;;;;;;;3.85;0.88;;;27.60;50.40;;;;;;5068816;28;20074;-68
2021/08/29 07:06:22;;;;;;;4.03;1.05;;;27.70;49.20;;;;;;5068781;28;20028;-68
2021/08/29 07:08:48;;;;;;;5.05;0.70;;;27.60;48.60;;;;;;5068443;28;20093;-68
2021/08/29 07:11:13;;;;;;;1.88;1.00;;;27.90;47.70;;;;;;5067743;28;20028;-68
2021/08/29 07:13:39;;;;;;;2.45;0.93;;;28.50;46.70;;;;;;5067834;28;20028;-69
2021/08/29 07:16:04;;;;;;;1.83;1.13;;;29.00;46.50;;;;;;5067878;28;20042;-69
2021/08/29 07:18:30;;;;;;;2.17;1.05;;;29.40;45.70;;;;;;5068188;28;20021;-69
2021/08/29 07:20:56;;;;;;;1.45;0.75;;;29.30;45.50;;;;;;5068238;28;20244;-69
2021/08/29 07:23:22;;;;;;;2.53;1.00;;;28.90;44.20;;;;;;5068556;28;20036;-69
2021/08/29 07:25:47;;;;;;;3.42;0.85;;;29.30;44.20;;;;;;5067242;28;20048;-69
2021/08/29 07:28:13;;;;;;;2.88;1.33;;;29.60;43.60;;;;;;5068023;28;20041;-68
2021/08/29 07:30:39;;;;;;;2.28;0.65;;;29.90;42.50;;;;;;5068376;28;20374;-68
2021/08/29 07:33:04;;;;;;;1.98;1.35;;;30.20;42.80;;;;;;5068322;28;20032;-68
2021/08/29 07:35:30;;;;;;;2.42;0.85;;;30.60;40.80;;;;;;5068316;28;20055;-68
2021/08/29 07:37:56;;;;;;;1.95;1.10;;;29.90;42.60;;;;;;5068582;28;20662;-69
2021/08/29 07:40:21;;;;;;;4.65;0.90;;;30.10;42.60;;;;;;5068060;28;20025;-69
2021/08/29 07:42:47;;;;;;;1.85;0.98;;;30.10;42.60;;;;;;5068311;28;20034;-69
2021/08/29 07:45:13;;;;;;;2.95;1.00;;;30.40;41.90;;;;;;5067441;28;20032;-69
2021/08/29 07:47:39;;;;;;;2.97;0.95;;;30.50;41.20;;;;;;5068049;28;20040;-69
2021/08/29 07:50:05;;;;;;;2.22;1.23;;;30.10;40.90;;;;;;5068191;28;20032;-68
2021/08/29 07:52:31;;;;;;;2.05;0.80;;;30.00;41.30;;;;;;5068079;28;20028;-69
2021/08/29 07:54:57;;;;;;;1.30;0.70;;;30.70;39.30;;;;;;5068027;28;20024;-69
2021/08/29 07:57:22;;;;;;;4.45;0.80;;;30.80;39.60;;;;;;5067818;28;20035;-69
2021/08/29 07:59:48;;;;;;;2.78;0.60;;;30.50;39.30;;;;;;5068243;28;20024;-69
2021/08/29 08:02:16;;;;;;;1.13;0.75;;;29.90;39.80;;;;;;5068038;28;20086;-68
2021/08/29 08:04:42;;;;;;;2.20;0.80;;;29.20;41.30;;;;;;5068111;28;20071;-69
2021/08/29 08:07:08;;;;;;;1.27;0.70;;;28.80;42.20;;;;;;5049791;28;20456;-67
2021/08/29 08:09:34;;;;;;;2.22;0.70;;;29.20;41.70;;;;;;5067915;28;20020;-68
2021/08/29 08:12:00;;;;;;;1.33;0.73;;;28.70;42.80;;;;;;5068044;28;20446;-67
2021/08/29 08:14:25;;;;;;;1.00;0.73;;;28.20;43.00;;;;;;5068043;28;20021;-67
2021/08/29 08:16:51;;;;;;;3.50;1.23;;;27.50;44.00;;;;;;5067890;28;20028;-67
2021/08/29 08:19:17;;;;;;;0.80;0.57;;;26.80;44.50;;;;;;5050017;28;20051;-68
2021/08/29 08:21:43;;;;;;;1.25;0.80;;;26.20;45.20;;;;;;5054623;28;20049;-68
2021/08/29 08:24:08;;;;;;;0.95;0.75;;;25.30;46.50;;;;;;5028105;28;20105;-68
2021/08/29 08:26:34;;;;;;;1.55;0.70;;;24.80;48.20;;;;;;5028055;28;20061;-68
2021/08/29 08:28:59;;;;;;;1.48;0.82;;;24.30;48.60;;;;;;5027950;28;20433;-70
2021/08/29 08:31:25;;;;;;;1.30;0.90;;;23.70;50.50;;;;;;5027957;28;20033;-68
2021/08/29 08:33:51;;;;;;;1.95;0.90;;;23.20;51.60;;;;;;5026607;28;20026;-67
2021/08/29 08:36:17;;;;;;;1.30;0.90;;;22.60;53.20;;;;;;5028760;28;20029;-68
2021/08/29 08:38:43;;;;;;;1.48;1.05;;;22.20;54.40;;;;;;5031229;28;20025;-68
2021/08/29 08:41:09;;;;;;;1.92;0.70;;;21.90;55.90;;;;;;5031503;28;20042;-68
2021/08/29 08:43:35;;;;;;;1.27;0.80;;;21.70;57.10;;;;;;5031579;28;20025;-68
2021/08/29 08:46:02;;;;;;;2.10;0.95;;;21.50;57.90;;;;;;5030298;28;20120;-67
2021/08/29 08:48:29;;;;;;;4.72;2.20;;;21.20;59.40;;;;;;5031214;28;20628;-68
2021/08/29 08:50:58;;;;;;;4.90;2.00;;;21.10;59.90;;;;;;5031462;28;20105;-69
2021/08/29 08:53:27;;;;;;;3.03;1.27;;;22.00;59.10;;;;;;5031437;28;20030;-70
2021/08/29 08:55:54;;;;;;;2.50;1.30;;;22.90;57.90;;;;;;5031545;28;20021;-68
2021/08/29 08:58:20;;;;;;;1.95;1.10;;;23.20;55.50;;;;;;5030496;28;20340;-68
2021/08/29 09:00:47;;;;;;;2.72;1.27;;;23.70;54.00;;;;;;5031460;28;20056;-68
2021/08/29 09:03:15;;;;;;;1.90;0.80;;;23.90;54.20;;;;;;5031164;28;20045;-68
2021/08/29 09:05:41;;;;;;;1.70;0.90;;;24.50;53.40;;;;;;5031125;28;20037;-68
2021/08/29 09:08:07;;;;;;;2.58;0.85;;;24.70;51.40;;;;;;5031143;28;20074;-68
2021/08/29 09:10:33;;;;;;;3.55;0.85;;;24.10;52.90;;;;;;5031384;28;20068;-68
2021/08/29 09:13:01;;;;;;;2.58;1.20;;;23.40;54.50;;;;;;5031086;28;20467;-68
2021/08/29 09:15:28;;;;;;;1.13;0.80;;;23.20;55.20;;;;;;5029734;28;20398;-67
2021/08/29 09:17:55;;;;;;;3.63;1.55;;;23.20;54.50;;;;;;5031112;28;20028;-68
2021/08/29 09:20:28;;;;;;;1.52;1.05;;;24.00;55.20;;;;;;5031172;28;20723;-68
2021/08/29 09:22:57;;;;;;;1.83;1.17;;;24.60;50.90;;;;;;5029496;28;20060;-67
2021/08/29 09:25:25;;;;;;;4.20;1.13;;;25.40;51.20;;;;;;5030806;28;20033;-68
2021/08/29 09:27:55;;;;;;;1.88;1.10;;;26.40;49.70;;;;;;5030766;28;20061;-69
2021/08/29 09:30:22;;;;;;;1.50;0.88;;;27.50;46.80;;;;;;5030856;28;20021;-68
2021/08/29 09:32:59;;;;;;;1.23;0.70;;;28.20;45.70;;;;;;5030813;28;20025;-68
2021/08/29 09:35:30;;;;;;;2.13;0.88;;;28.30;42.60;;;;;;5030694;28;20944;-68
2021/08/29 09:37:56;;;;;;;3.90;0.75;;;28.00;41.60;;;;;;5030710;28;20032;-68
2021/08/29 09:40:24;;;;;;;3.20;0.70;;;27.10;42.60;;;;;;5030600;28;20663;-68
2021/08/29 09:42:53;;;;;;;1.40;0.80;;;26.40;44.10;;;;;;5030824;28;20038;-69
2021/08/29 09:45:24;;;;;;;1.35;0.80;;;25.80;45.90;;;;;;5028978;28;20029;-68
2021/08/29 09:47:52;;;;;;;1.42;0.70;;;25.20;46.40;;;;;;5029625;28;20035;-69
2021/08/29 09:50:22;;;;;;;1.65;1.00;;;24.50;47.90;;;;;;5030398;28;20029;-68
2021/08/29 09:52:48;;;;;;;1.50;0.93;;;24.20;49.50;;;;;;5030460;28;20041;-66
2021/08/29 09:55:26;;;;;;;1.00;0.57;;;23.90;50.00;;;;;;5030301;28;20395;-68
2021/08/29 09:57:52;;;;;;;1.45;0.70;;;23.60;50.60;;;;;;5030194;28;20033;-68
2021/08/29 10:00:18;;;;;;;2.13;1.00;;;23.20;50.60;;;;;;5030183;28;20033;-68
2021/08/29 10:02:43;;;;;;;2.10;0.80;;;22.90;51.00;;;;;;5030080;28;20068;-68
2021/08/29 10:05:19;;;;;;;1.90;0.88;;;23.30;52.30;;;;;;5029983;28;20101;-68
2021/08/29 10:08:00;;;;;;;6.13;1.08;;;24.30;51.60;;;;;;5030351;28;20422;-69
2021/08/29 10:10:30;;;;;;;2.28;0.93;;;25.70;47.70;;;;;;5030019;28;20022;-69
2021/08/29 10:12:57;;;;;;;1.58;0.80;;;26.90;46.60;;;;;;5029769;28;20376;-69
2021/08/29 10:15:25;;;;;;;1.20;0.70;;;28.10;43.30;;;;;;5029884;28;20048;-68
2021/08/29 10:17:54;;;;;;;3.17;0.80;;;28.60;42.90;;;;;;5029718;28;20045;-69
2021/08/29 10:20:20;;;;;;;1.85;0.80;;;28.60;41.70;;;;;;5028555;28;20460;-68
2021/08/29 10:22:48;;;;;;;2.15;0.98;;;28.30;40.60;;;;;;5064558;28;20057;-68
2021/08/29 10:25:17;;;;;;;2.40;0.82;;;27.90;41.80;;;;;;5069419;28;20079;-68
2021/08/29 10:27:54;;;;;;;1.40;0.82;;;27.20;42.80;;;;;;5069051;28;20191;-67
2021/08/29 10:30:20;;;;;;;1.23;0.65;;;26.90;44.40;;;;;;5068909;28;20035;-68
2021/08/29 10:32:47;;;;;;;1.88;0.70;;;27.00;43.10;;;;;;5069454;28;20405;-69
2021/08/29 10:35:14;;;;;;;2.15;0.88;;;26.90;42.90;;;;;;5069182;28;20044;-67
2021/08/29 10:37:42;;;;;;;1.25;0.88;;;26.80;44.40;;;;;;5069254;28;20054;-68
2021/08/29 10:40:09;;;;;;;1.20;0.77;;;26.70;44.40;;;;;;5069275;28;20039;-67
2021/08/29 10:42:42;;;;;;;3.45;0.80;;;26.70;44.10;;;;;;5069256;28;20477;-68
2021/08/29 10:45:10;;;;;;;7.43;0.90;;;26.60;43.80;;;;;;5069151;28;20029;-68
2021/08/29 10:47:38;;;;;;;2.88;0.80;;;26.30;44.30;;;;;;5068956;28;20031;-67
2021/08/29 10:50:06;;;;;;;2.45;0.80;;;26.10;45.50;;;;;;5069123;28;20025;-68
2021/08/29 10:52:34;;;;;;;2.13;0.88;;;25.80;46.30;;;;;;5069098;28;20046;-68
2021/08/29 10:55:06;;;;;;;1.23;0.65;;;25.40;46.60;;;;;;5068819;28;20024;-69
2021/08/29 10:57:38;;;;;;;1.77;0.95;;;25.00;46.60;;;;;;5068686;28;20063;-69
2021/08/29 11:00:14;;;;;;;1.83;1.00;;;24.70;48.30;;;;;;5068829;28;20025;-68
2021/08/29 11:02:43;;;;;;;1.40;0.82;;;24.50;48.60;;;;;;5068923;28;20497;-68
2021/08/29 11:05:12;;;;;;;2.47;0.90;;;24.40;49.10;;;;;;5068537;28;20039;-68
2021/08/29 11:07:44;;;;;;;1.35;0.75;;;24.10;49.20;;;;;;5068634;28;20558;-68
2021/08/29 11:10:12;;;;;;;3.35;1.35;;;23.80;50.50;;;;;;5050543;28;20451;-68
2021/08/29 11:12:39;;;;;;;1.83;1.02;;;23.60;51.90;;;;;;5068647;28;20555;-68
2021/08/29 11:15:13;;;;;;;1.42;0.82;;;23.50;52.00;;;;;;5068310;28;20035;-67
2021/08/29 11:17:39;;;;;;;3.30;1.00;;;23.40;52.60;;;;;;5068398;28;20036;-68
2021/08/29 11:20:05;;;;;;;1.55;0.80;;;23.50;53.20;;;;;;5067014;28;20400;-68
2021/08/29 11:22:39;;;;;;;2.83;1.17;;;23.40;53.60;;;;;;5068443;28;20052;-68
2021/08/29 11:25:19;;;;;;;1.95;0.98;;;23.40;53.20;;;;;;5068307;28;20028;-68
2021/08/29 11:27:52;;;;;;;2.03;1.00;;;23.40;54.10;;;;;;5068398;28;20405;-67
2021/08/29 11:30:26;;;;;;;2.08;0.98;;;23.40;54.20;;;;;;5068447;28;20036;-67
2021/08/29 11:32:57;;;;;;;2.08;0.82;;;23.40;54.40;;;;;;5068499;28;20520;-69
2021/08/29 11:35:22;;;;;;;1.92;1.08;;;23.40;54.50;;;;;;5068423;28;20032;-67
2021/08/29 11:38:07;;;;;;;2.25;0.90;;;23.40;55.00;;;;;;5068468;28;20032;-68
2021/08/29 11:41:17;;;;;;;2.17;0.70;;;23.40;55.90;;;;;;5068442;28;20036;-68
2021/08/29 11:43:48;;;;;;;4.15;0.82;;;23.30;55.90;;;;;;5012716;28;20041;-68
2021/08/29 11:46:23;;;;;;;2.40;1.02;;;23.10;56.10;;;;;;5068242;28;20032;-68
2021/08/29 11:48:58;;;;;;;6.00;1.35;;;23.00;56.50;;;;;;5068282;28;20016;-69
2021/08/29 11:51:31;;;;;;;2.03;1.00;;;22.90;57.10;;;;;;5068271;28;20043;-68
2021/08/29 11:53:59;;;;;;;5.03;1.15;;;22.80;58.20;;;;;;5068259;28;20025;-67
2021/08/29 11:56:30;;;;;;;4.85;1.42;;;22.70;58.70;;;;;;5068140;28;20104;-71
2021/08/29 11:59:02;;;;;;;2.35;1.20;;;22.60;58.80;;;;;;5067981;28;20023;-67
2021/08/29 12:01:31;;;;;;;3.25;1.20;;;22.50;59.50;;;;;;5068086;28;20032;-68
2021/08/29 12:03:59;;;;;;;1.30;0.68;;;22.40;60.50;;;;;;5068187;28;20044;-68
2021/08/29 12:06:33;;;;;;;1.63;0.90;;;22.30;62.20;;;;;;5068076;28;20033;-68
2021/08/29 12:09:12;;;;;;;3.72;0.75;;;22.30;62.30;;;;;;5068004;28;20036;-68
2021/08/29 12:11:40;;;;;;;1.15;0.70;;;22.60;62.20;;;;;;5069476;28;20078;-67
2021/08/29 12:14:21;;;;;;;1.27;0.70;;;23.00;60.00;;;;;;5072182;28;20024;-68
2021/08/29 12:16:55;;;;;;;1.17;0.60;;;23.40;56.10;;;;;;5072092;28;20055;-68
2021/08/29 12:19:35;;;;;;;1.63;0.82;;;23.70;54.70;;;;;;5072128;28;20485;-68
2021/08/29 12:22:04;;;;;;;5.95;0.73;;;24.00;54.90;;;;;;5071980;28;20047;-68
2021/08/29 12:24:32;;;;;;;2.03;0.90;;;24.10;53.90;;;;;;5071889;28;20029;-68
2021/08/29 12:27:04;;;;;;;1.48;0.77;;;24.10;53.40;;;;;;5071571;28;20440;-68
2021/08/29 12:29:31;;;;;;;2.05;1.00;;;24.00;53.30;;;;;;5071826;28;20069;-68
2021/08/29 12:32:10;;;;;;;3.90;0.88;;;23.80;53.30;;;;;;5071966;28;20024;-68
2021/08/29 12:34:36;;;;;;;2.58;0.93;;;23.70;54.90;;;;;;5071750;28;20028;-68
2021/08/29 12:37:04;;;;;;;2.58;1.38;;;23.40;58.50;;;;;;5071400;28;20031;-67
2021/08/29 12:39:31;;;;;;;1.65;0.95;;;23.00;61.30;;;;;;5071509;28;20164;-68
2021/08/29 12:42:16;;;;;;;2.60;0.90;;;22.50;61.40;;;;;;5071537;28;20562;-68
2021/08/29 12:44:42;;;;;;;2.80;1.57;;;22.10;62.80;;;;;;5054285;28;20056;-67
2021/08/29 12:47:08;;;;;;;3.95;2.03;;;21.80;64.00;;;;;;5071022;28;20083;-66
2021/08/29 12:49:34;;;;;;;4.60;0.90;;;21.70;65.10;;;;;;5071192;28;20024;-66
2021/08/29 12:52:00;;;;;;;1.55;0.85;;;21.60;64.50;;;;;;5071261;28;20032;-66
2021/08/29 12:54:27;;;;;;;1.83;1.00;;;21.60;64.80;;;;;;5071263;28;20024;-67
2021/08/29 12:56:52;;;;;;;5.43;1.00;;;21.60;65.40;;;;;;5071299;28;20047;-67
2021/08/29 12:59:26;;;;;;;4.13;1.35;;;21.60;65.70;;;;;;5071144;28;20032;-68